sensor_id;sensor_type;location;lat;lon;timestamp;P1;durP1;ratioP1;P2;durP2;ratioP2
20844;SDS011;10583;49.084;8.646;2023-09-07T00:00:32;4.70;;;4.70;;
20844;SDS011;10583;49.084;8.646;2023-09-07T00:02:59;4.20;;;4.20;;
20844;SDS011;10583;49.084;8.646;2023-09-07T00:05:25;4.20;;;4.20;;
20844;SDS011;10583;49.084;8.646;2023-09-07T00:07:52;3.77;;;3.77;;
20844;SDS011;10583;49.084;8.646;2023-09-07T00:10:19;3.83;;;3.83;;
20844;SDS011;10583;49.084;8.646;2023-09-07T00:12:47;4.23;;;4.23;;
20844;SDS011;10583;49.084;8.646;2023-09-07T00:15:13;4.00;;;4.00;;
20844;SDS011;10583;49.084;8.646;2023-09-07T00:17:40;3.97;;;3.97;;
20844;SDS011;10583;49.084;8.646;2023-09-07T00:20:08;4.13;;;4.13;;
20844;SDS011;10583;49.084;8.646;2023-09-07T00:22:39;4.10;;;4.10;;
20844;SDS011;10583;49.084;8.646;2023-09-07T00:25:06;4.03;;;4.03;;
20844;SDS011;10583;49.084;8.646;2023-09-07T00:27:34;4.17;;;4.17;;
20844;SDS011;10583;49.084;8.646;2023-09-07T00:30:02;4.30;;;4.30;;
20844;SDS011;10583;49.084;8.646;2023-09-07T00:32:31;4.30;;;4.30;;
20844;SDS011;10583;49.084;8.646;2023-09-07T00:34:58;4.10;;;4.10;;
20844;SDS011;10583;49.084;8.646;2023-09-07T00:37:25;4.50;;;4.50;;
20844;SDS011;10583;49.084;8.646;2023-09-07T00:39:51;3.93;;;3.93;;
20844;SDS011;10583;49.084;8.646;2023-09-07T00:42:18;4.10;;;4.10;;
20844;SDS011;10583;49.084;8.646;2023-09-07T00:44:45;4.00;;;4.00;;
20844;SDS011;10583;49.084;8.646;2023-09-07T00:47:14;4.47;;;4.47;;
20844;SDS011;10583;49.084;8.646;2023-09-07T00:49:41;4.60;;;4.60;;
20844;SDS011;10583;49.084;8.646;2023-09-07T00:52:07;4.40;;;4.40;;
20844;SDS011;10583;49.084;8.646;2023-09-07T00:54:35;4.50;;;4.50;;
20844;SDS011;10583;49.084;8.646;2023-09-07T00:57:03;4.30;;;4.30;;
20844;SDS011;10583;49.084;8.646;2023-09-07T00:59:31;3.87;;;3.87;;
20844;SDS011;10583;49.084;8.646;2023-09-07T01:01:58;4.80;;;4.80;;
20844;SDS011;10583;49.084;8.646;2023-09-07T01:04:26;4.40;;;4.40;;
20844;SDS011;10583;49.084;8.646;2023-09-07T01:06:55;4.47;;;4.47;;
20844;SDS011;10583;49.084;8.646;2023-09-07T01:09:27;4.17;;;4.17;;
20844;SDS011;10583;49.084;8.646;2023-09-07T01:11:56;4.87;;;4.87;;
20844;SDS011;10583;49.084;8.646;2023-09-07T01:14:23;4.63;;;4.63;;
20844;SDS011;10583;49.084;8.646;2023-09-07T01:16:50;4.70;;;4.70;;
20844;SDS011;10583;49.084;8.646;2023-09-07T01:19:16;4.53;;;4.53;;
20844;SDS011;10583;49.084;8.646;2023-09-07T01:21:44;4.23;;;4.23;;
20844;SDS011;10583;49.084;8.646;2023-09-07T01:24:12;4.47;;;4.47;;
20844;SDS011;10583;49.084;8.646;2023-09-07T01:26:41;4.33;;;4.33;;
20844;SDS011;10583;49.084;8.646;2023-09-07T01:29:08;4.37;;;4.37;;
20844;SDS011;10583;49.084;8.646;2023-09-07T01:31:35;4.20;;;4.20;;
20844;SDS011;10583;49.084;8.646;2023-09-07T01:34:03;4.73;;;4.73;;
20844;SDS011;10583;49.084;8.646;2023-09-07T01:36:31;4.07;;;4.07;;
20844;SDS011;10583;49.084;8.646;2023-09-07T01:38:59;4.20;;;4.20;;
20844;SDS011;10583;49.084;8.646;2023-09-07T01:41:26;4.33;;;4.33;;
20844;SDS011;10583;49.084;8.646;2023-09-07T01:43:54;3.77;;;3.77;;
20844;SDS011;10583;49.084;8.646;2023-09-07T01:46:20;3.70;;;3.70;;
20844;SDS011;10583;49.084;8.646;2023-09-07T01:48:47;4.07;;;4.07;;
20844;SDS011;10583;49.084;8.646;2023-09-07T01:51:14;3.87;;;3.87;;
20844;SDS011;10583;49.084;8.646;2023-09-07T01:53:40;4.50;;;4.50;;
20844;SDS011;10583;49.084;8.646;2023-09-07T01:56:08;4.13;;;4.13;;
20844;SDS011;10583;49.084;8.646;2023-09-07T01:58:35;4.50;;;4.50;;
20844;SDS011;10583;49.084;8.646;2023-09-07T02:01:02;4.07;;;4.07;;
20844;SDS011;10583;49.084;8.646;2023-09-07T02:03:29;4.60;;;4.60;;
20844;SDS011;10583;49.084;8.646;2023-09-07T02:05:55;4.50;;;4.50;;
20844;SDS011;10583;49.084;8.646;2023-09-07T02:08:22;4.40;;;4.40;;
20844;SDS011;10583;49.084;8.646;2023-09-07T02:10:49;4.87;;;4.87;;
20844;SDS011;10583;49.084;8.646;2023-09-07T02:13:17;4.40;;;4.40;;
20844;SDS011;10583;49.084;8.646;2023-09-07T02:15:43;4.30;;;4.30;;
20844;SDS011;10583;49.084;8.646;2023-09-07T02:18:10;4.60;;;4.60;;
20844;SDS011;10583;49.084;8.646;2023-09-07T02:20:37;4.40;;;4.40;;
20844;SDS011;10583;49.084;8.646;2023-09-07T02:23:03;4.60;;;4.60;;
20844;SDS011;10583;49.084;8.646;2023-09-07T02:25:30;4.10;;;4.10;;
20844;SDS011;10583;49.084;8.646;2023-09-07T02:27:57;4.27;;;4.27;;
20844;SDS011;10583;49.084;8.646;2023-09-07T02:30:25;4.33;;;4.33;;
20844;SDS011;10583;49.084;8.646;2023-09-07T02:32:52;4.23;;;4.23;;
20844;SDS011;10583;49.084;8.646;2023-09-07T02:35:19;4.13;;;4.13;;
20844;SDS011;10583;49.084;8.646;2023-09-07T02:37:46;4.33;;;4.33;;
20844;SDS011;10583;49.084;8.646;2023-09-07T02:40:12;4.00;;;4.00;;
20844;SDS011;10583;49.084;8.646;2023-09-07T02:42:40;4.70;;;4.70;;
20844;SDS011;10583;49.084;8.646;2023-09-07T02:45:10;4.73;;;4.73;;
20844;SDS011;10583;49.084;8.646;2023-09-07T02:47:38;4.50;;;4.50;;
20844;SDS011;10583;49.084;8.646;2023-09-07T02:50:05;4.60;;;4.60;;
20844;SDS011;10583;49.084;8.646;2023-09-07T02:52:32;4.70;;;4.70;;
20844;SDS011;10583;49.084;8.646;2023-09-07T02:54:59;4.63;;;4.63;;
20844;SDS011;10583;49.084;8.646;2023-09-07T02:57:26;4.40;;;4.40;;
20844;SDS011;10583;49.084;8.646;2023-09-07T02:59:53;4.43;;;4.43;;
20844;SDS011;10583;49.084;8.646;2023-09-07T03:02:20;4.03;;;4.03;;
20844;SDS011;10583;49.084;8.646;2023-09-07T03:04:52;4.20;;;4.20;;
20844;SDS011;10583;49.084;8.646;2023-09-07T03:07:19;4.20;;;4.20;;
20844;SDS011;10583;49.084;8.646;2023-09-07T03:09:46;4.13;;;4.13;;
20844;SDS011;10583;49.084;8.646;2023-09-07T03:12:12;4.30;;;4.30;;
20844;SDS011;10583;49.084;8.646;2023-09-07T03:14:42;3.93;;;3.93;;
20844;SDS011;10583;49.084;8.646;2023-09-07T03:17:09;4.37;;;4.37;;
20844;SDS011;10583;49.084;8.646;2023-09-07T03:19:36;4.43;;;4.43;;
20844;SDS011;10583;49.084;8.646;2023-09-07T03:22:05;5.00;;;5.00;;
20844;SDS011;10583;49.084;8.646;2023-09-07T03:24:31;4.27;;;4.27;;
20844;SDS011;10583;49.084;8.646;2023-09-07T03:26:58;4.53;;;4.53;;
20844;SDS011;10583;49.084;8.646;2023-09-07T03:29:25;4.90;;;4.90;;
20844;SDS011;10583;49.084;8.646;2023-09-07T03:31:52;4.30;;;4.30;;
20844;SDS011;10583;49.084;8.646;2023-09-07T03:34:18;5.20;;;5.20;;
20844;SDS011;10583;49.084;8.646;2023-09-07T03:36:46;4.73;;;4.73;;
20844;SDS011;10583;49.084;8.646;2023-09-07T03:39:13;4.77;;;4.77;;
20844;SDS011;10583;49.084;8.646;2023-09-07T03:41:40;4.40;;;4.40;;
20844;SDS011;10583;49.084;8.646;2023-09-07T03:44:07;4.70;;;4.70;;
20844;SDS011;10583;49.084;8.646;2023-09-07T03:46:34;4.60;;;4.60;;
20844;SDS011;10583;49.084;8.646;2023-09-07T03:49:00;4.50;;;4.50;;
20844;SDS011;10583;49.084;8.646;2023-09-07T03:51:27;4.50;;;4.50;;
20844;SDS011;10583;49.084;8.646;2023-09-07T03:53:54;4.40;;;4.40;;
20844;SDS011;10583;49.084;8.646;2023-09-07T03:56:22;4.33;;;4.33;;
20844;SDS011;10583;49.084;8.646;2023-09-07T03:58:48;5.13;;;5.13;;
20844;SDS011;10583;49.084;8.646;2023-09-07T04:01:15;5.00;;;5.00;;
20844;SDS011;10583;49.084;8.646;2023-09-07T04:03:42;4.67;;;4.67;;
20844;SDS011;10583;49.084;8.646;2023-09-07T04:06:08;4.80;;;4.80;;
20844;SDS011;10583;49.084;8.646;2023-09-07T04:08:35;4.20;;;4.20;;
20844;SDS011;10583;49.084;8.646;2023-09-07T04:11:03;4.20;;;4.20;;
20844;SDS011;10583;49.084;8.646;2023-09-07T04:13:32;4.57;;;4.57;;
20844;SDS011;10583;49.084;8.646;2023-09-07T04:15:59;4.60;;;4.60;;
20844;SDS011;10583;49.084;8.646;2023-09-07T04:18:25;4.60;;;4.60;;
20844;SDS011;10583;49.084;8.646;2023-09-07T04:20:52;5.77;;;5.77;;
20844;SDS011;10583;49.084;8.646;2023-09-07T04:23:19;4.87;;;4.87;;
20844;SDS011;10583;49.084;8.646;2023-09-07T04:25:45;4.73;;;4.73;;
20844;SDS011;10583;49.084;8.646;2023-09-07T04:28:12;4.20;;;4.20;;
20844;SDS011;10583;49.084;8.646;2023-09-07T04:30:41;4.33;;;4.33;;
20844;SDS011;10583;49.084;8.646;2023-09-07T04:33:07;4.27;;;4.27;;
20844;SDS011;10583;49.084;8.646;2023-09-07T04:35:34;4.20;;;4.20;;
20844;SDS011;10583;49.084;8.646;2023-09-07T04:38:01;4.33;;;4.33;;
20844;SDS011;10583;49.084;8.646;2023-09-07T04:40:28;4.30;;;4.30;;
20844;SDS011;10583;49.084;8.646;2023-09-07T04:42:54;4.33;;;4.33;;
20844;SDS011;10583;49.084;8.646;2023-09-07T04:45:21;4.30;;;4.30;;
20844;SDS011;10583;49.084;8.646;2023-09-07T04:47:50;4.47;;;4.47;;
20844;SDS011;10583;49.084;8.646;2023-09-07T04:50:17;4.40;;;4.40;;
20844;SDS011;10583;49.084;8.646;2023-09-07T04:52:43;4.07;;;4.07;;
20844;SDS011;10583;49.084;8.646;2023-09-07T04:55:10;4.03;;;4.03;;
20844;SDS011;10583;49.084;8.646;2023-09-07T04:57:37;3.90;;;3.90;;
20844;SDS011;10583;49.084;8.646;2023-09-07T05:00:04;4.20;;;4.20;;
20844;SDS011;10583;49.084;8.646;2023-09-07T05:02:32;4.00;;;4.00;;
20844;SDS011;10583;49.084;8.646;2023-09-07T05:05:05;4.30;;;4.30;;
20844;SDS011;10583;49.084;8.646;2023-09-07T05:07:32;4.67;;;4.67;;
20844;SDS011;10583;49.084;8.646;2023-09-07T05:09:59;4.00;;;4.00;;
20844;SDS011;10583;49.084;8.646;2023-09-07T05:12:25;4.43;;;4.43;;
20844;SDS011;10583;49.084;8.646;2023-09-07T05:14:52;4.20;;;4.20;;
20844;SDS011;10583;49.084;8.646;2023-09-07T05:17:19;4.10;;;4.10;;
20844;SDS011;10583;49.084;8.646;2023-09-07T05:19:45;3.97;;;3.97;;
20844;SDS011;10583;49.084;8.646;2023-09-07T05:22:13;4.30;;;4.30;;
20844;SDS011;10583;49.084;8.646;2023-09-07T05:24:40;4.40;;;4.40;;
20844;SDS011;10583;49.084;8.646;2023-09-07T05:27:08;4.43;;;4.43;;
20844;SDS011;10583;49.084;8.646;2023-09-07T05:29:35;3.80;;;3.80;;
20844;SDS011;10583;49.084;8.646;2023-09-07T05:32:02;4.40;;;4.40;;
20844;SDS011;10583;49.084;8.646;2023-09-07T05:34:29;4.37;;;4.37;;
20844;SDS011;10583;49.084;8.646;2023-09-07T05:36:56;4.63;;;4.63;;
20844;SDS011;10583;49.084;8.646;2023-09-07T05:39:24;3.90;;;3.90;;
20844;SDS011;10583;49.084;8.646;2023-09-07T05:41:50;3.93;;;3.93;;
20844;SDS011;10583;49.084;8.646;2023-09-07T05:44:17;5.13;;;5.13;;
20844;SDS011;10583;49.084;8.646;2023-09-07T05:46:44;5.50;;;5.50;;
20844;SDS011;10583;49.084;8.646;2023-09-07T05:49:11;5.50;;;5.50;;
20844;SDS011;10583;49.084;8.646;2023-09-07T05:51:37;5.40;;;5.40;;
20844;SDS011;10583;49.084;8.646;2023-09-07T05:54:04;5.67;;;5.67;;
20844;SDS011;10583;49.084;8.646;2023-09-07T05:56:32;4.70;;;4.70;;
20844;SDS011;10583;49.084;8.646;2023-09-07T05:58:59;6.10;;;6.10;;
20844;SDS011;10583;49.084;8.646;2023-09-07T06:01:26;4.80;;;4.80;;
20844;SDS011;10583;49.084;8.646;2023-09-07T06:03:53;5.23;;;5.23;;
20844;SDS011;10583;49.084;8.646;2023-09-07T06:06:20;5.53;;;5.53;;
20844;SDS011;10583;49.084;8.646;2023-09-07T06:08:46;4.80;;;4.80;;
20844;SDS011;10583;49.084;8.646;2023-09-07T06:11:13;5.47;;;5.47;;
20844;SDS011;10583;49.084;8.646;2023-09-07T06:13:41;5.40;;;5.40;;
20844;SDS011;10583;49.084;8.646;2023-09-07T06:16:08;5.27;;;5.27;;
20844;SDS011;10583;49.084;8.646;2023-09-07T06:18:34;5.27;;;5.27;;
20844;SDS011;10583;49.084;8.646;2023-09-07T06:21:01;5.27;;;5.27;;
20844;SDS011;10583;49.084;8.646;2023-09-07T06:23:29;5.17;;;5.17;;
20844;SDS011;10583;49.084;8.646;2023-09-07T06:25:56;5.13;;;5.13;;
20844;SDS011;10583;49.084;8.646;2023-09-07T06:28:23;5.80;;;5.80;;
20844;SDS011;10583;49.084;8.646;2023-09-07T06:30:51;4.57;;;4.57;;
20844;SDS011;10583;49.084;8.646;2023-09-07T06:33:18;5.17;;;5.17;;
20844;SDS011;10583;49.084;8.646;2023-09-07T06:35:44;5.20;;;5.20;;
20844;SDS011;10583;49.084;8.646;2023-09-07T06:38:11;4.87;;;4.87;;
20844;SDS011;10583;49.084;8.646;2023-09-07T06:40:38;4.80;;;4.80;;
20844;SDS011;10583;49.084;8.646;2023-09-07T06:43:04;4.37;;;4.37;;
20844;SDS011;10583;49.084;8.646;2023-09-07T06:45:33;4.33;;;4.33;;
20844;SDS011;10583;49.084;8.646;2023-09-07T06:48:01;4.53;;;4.53;;
20844;SDS011;10583;49.084;8.646;2023-09-07T06:50:28;4.17;;;4.17;;
20844;SDS011;10583;49.084;8.646;2023-09-07T06:52:56;4.27;;;4.27;;
20844;SDS011;10583;49.084;8.646;2023-09-07T06:55:23;3.80;;;3.80;;
20844;SDS011;10583;49.084;8.646;2023-09-07T06:57:49;4.07;;;4.07;;
20844;SDS011;10583;49.084;8.646;2023-09-07T07:00:17;3.87;;;3.87;;
20844;SDS011;10583;49.084;8.646;2023-09-07T07:02:43;4.10;;;4.10;;
20844;SDS011;10583;49.084;8.646;2023-09-07T07:05:11;3.97;;;3.97;;
20844;SDS011;10583;49.084;8.646;2023-09-07T07:07:38;4.20;;;4.20;;
20844;SDS011;10583;49.084;8.646;2023-09-07T07:10:06;4.80;;;4.80;;
20844;SDS011;10583;49.084;8.646;2023-09-07T07:12:33;4.57;;;4.57;;
20844;SDS011;10583;49.084;8.646;2023-09-07T07:15:00;4.20;;;4.20;;
20844;SDS011;10583;49.084;8.646;2023-09-07T07:17:27;4.50;;;4.50;;
20844;SDS011;10583;49.084;8.646;2023-09-07T07:19:54;4.38;;;4.38;;
20844;SDS011;10583;49.084;8.646;2023-09-07T07:22:22;4.28;;;4.28;;
20844;SDS011;10583;49.084;8.646;2023-09-07T07:24:48;4.53;;;4.53;;
20844;SDS011;10583;49.084;8.646;2023-09-07T07:27:15;4.68;;;4.68;;
20844;SDS011;10583;49.084;8.646;2023-09-07T07:29:42;4.20;;;4.20;;
20844;SDS011;10583;49.084;8.646;2023-09-07T07:32:09;4.45;;;4.45;;
20844;SDS011;10583;49.084;8.646;2023-09-07T07:34:36;3.92;;;3.92;;
20844;SDS011;10583;49.084;8.646;2023-09-07T07:37:03;4.70;;;4.70;;
20844;SDS011;10583;49.084;8.646;2023-09-07T07:39:31;4.22;;;4.22;;
20844;SDS011;10583;49.084;8.646;2023-09-07T07:41:57;3.85;;;3.85;;
20844;SDS011;10583;49.084;8.646;2023-09-07T07:44:24;3.90;;;3.90;;
20844;SDS011;10583;49.084;8.646;2023-09-07T07:46:51;3.97;;;3.97;;
20844;SDS011;10583;49.084;8.646;2023-09-07T07:49:17;4.28;;;4.28;;
20844;SDS011;10583;49.084;8.646;2023-09-07T07:51:44;3.95;;;3.95;;
20844;SDS011;10583;49.084;8.646;2023-09-07T07:54:11;3.97;;;3.97;;
20844;SDS011;10583;49.084;8.646;2023-09-07T07:56:39;3.67;;;3.67;;
20844;SDS011;10583;49.084;8.646;2023-09-07T07:59:06;3.80;;;3.80;;
20844;SDS011;10583;49.084;8.646;2023-09-07T08:01:33;3.55;;;3.55;;
20844;SDS011;10583;49.084;8.646;2023-09-07T08:04:01;3.72;;;3.72;;
20844;SDS011;10583;49.084;8.646;2023-09-07T08:06:28;3.78;;;3.78;;
20844;SDS011;10583;49.084;8.646;2023-09-07T08:08:55;3.70;;;3.70;;
20844;SDS011;10583;49.084;8.646;2023-09-07T08:11:21;3.53;;;3.53;;
20844;SDS011;10583;49.084;8.646;2023-09-07T08:13:51;3.80;;;3.80;;
20844;SDS011;10583;49.084;8.646;2023-09-07T08:16:18;3.92;;;3.92;;
20844;SDS011;10583;49.084;8.646;2023-09-07T08:18:44;3.88;;;3.88;;
20844;SDS011;10583;49.084;8.646;2023-09-07T08:21:13;3.53;;;3.53;;
20844;SDS011;10583;49.084;8.646;2023-09-07T08:23:40;3.60;;;3.60;;
20844;SDS011;10583;49.084;8.646;2023-09-07T08:26:07;3.75;;;3.75;;
20844;SDS011;10583;49.084;8.646;2023-09-07T08:28:34;3.90;;;3.90;;
20844;SDS011;10583;49.084;8.646;2023-09-07T08:31:03;3.65;;;3.65;;
20844;SDS011;10583;49.084;8.646;2023-09-07T08:33:30;3.63;;;3.63;;
20844;SDS011;10583;49.084;8.646;2023-09-07T08:36:00;3.80;;;3.80;;
20844;SDS011;10583;49.084;8.646;2023-09-07T08:38:29;3.88;;;3.88;;
20844;SDS011;10583;49.084;8.646;2023-09-07T08:40:56;3.42;;;3.42;;
20844;SDS011;10583;49.084;8.646;2023-09-07T08:43:30;3.63;;;3.63;;
20844;SDS011;10583;49.084;8.646;2023-09-07T08:46:01;3.40;;;3.40;;
20844;SDS011;10583;49.084;8.646;2023-09-07T08:48:39;3.42;;;3.42;;
20844;SDS011;10583;49.084;8.646;2023-09-07T08:51:07;3.65;;;3.65;;
20844;SDS011;10583;49.084;8.646;2023-09-07T08:53:36;3.75;;;3.75;;
20844;SDS011;10583;49.084;8.646;2023-09-07T08:56:05;3.85;;;3.85;;
20844;SDS011;10583;49.084;8.646;2023-09-07T08:58:34;3.60;;;3.60;;
20844;SDS011;10583;49.084;8.646;2023-09-07T09:01:01;4.32;;;4.32;;
20844;SDS011;10583;49.084;8.646;2023-09-07T09:03:30;3.30;;;3.30;;
20844;SDS011;10583;49.084;8.646;2023-09-07T09:05:56;3.65;;;3.65;;
20844;SDS011;10583;49.084;8.646;2023-09-07T09:08:23;3.75;;;3.75;;
20844;SDS011;10583;49.084;8.646;2023-09-07T09:10:58;3.70;;;3.70;;
20844;SDS011;10583;49.084;8.646;2023-09-07T09:13:29;3.75;;;3.75;;
20844;SDS011;10583;49.084;8.646;2023-09-07T09:15:58;3.75;;;3.75;;
20844;SDS011;10583;49.084;8.646;2023-09-07T09:18:25;3.70;;;3.70;;
20844;SDS011;10583;49.084;8.646;2023-09-07T09:20:53;3.53;;;3.53;;
20844;SDS011;10583;49.084;8.646;2023-09-07T09:23:20;3.95;;;3.95;;
20844;SDS011;10583;49.084;8.646;2023-09-07T09:25:47;3.88;;;3.88;;
20844;SDS011;10583;49.084;8.646;2023-09-07T09:28:14;3.53;;;3.53;;
20844;SDS011;10583;49.084;8.646;2023-09-07T09:30:41;4.13;;;4.13;;
20844;SDS011;10583;49.084;8.646;2023-09-07T09:33:09;3.38;;;3.38;;
20844;SDS011;10583;49.084;8.646;2023-09-07T09:35:36;3.72;;;3.72;;
20844;SDS011;10583;49.084;8.646;2023-09-07T09:38:04;3.70;;;3.70;;
20844;SDS011;10583;49.084;8.646;2023-09-07T09:40:31;3.70;;;3.70;;
20844;SDS011;10583;49.084;8.646;2023-09-07T09:43:00;3.67;;;3.67;;
20844;SDS011;10583;49.084;8.646;2023-09-07T09:45:28;3.72;;;3.72;;
20844;SDS011;10583;49.084;8.646;2023-09-07T09:47:55;4.07;;;4.07;;
20844;SDS011;10583;49.084;8.646;2023-09-07T09:50:22;3.70;;;3.70;;
20844;SDS011;10583;49.084;8.646;2023-09-07T09:52:49;3.42;;;3.42;;
20844;SDS011;10583;49.084;8.646;2023-09-07T09:55:19;3.65;;;3.65;;
20844;SDS011;10583;49.084;8.646;2023-09-07T09:57:47;3.75;;;3.75;;
20844;SDS011;10583;49.084;8.646;2023-09-07T10:00:15;3.80;;;3.80;;
20844;SDS011;10583;49.084;8.646;2023-09-07T10:02:53;3.53;;;3.53;;
20844;SDS011;10583;49.084;8.646;2023-09-07T10:05:24;4.18;;;4.18;;
20844;SDS011;10583;49.084;8.646;2023-09-07T10:07:52;3.50;;;3.50;;
20844;SDS011;10583;49.084;8.646;2023-09-07T10:10:20;3.83;;;3.83;;
20844;SDS011;10583;49.084;8.646;2023-09-07T10:12:51;4.10;;;4.10;;
20844;SDS011;10583;49.084;8.646;2023-09-07T10:15:19;4.15;;;4.15;;
20844;SDS011;10583;49.084;8.646;2023-09-07T10:17:47;3.60;;;3.60;;
20844;SDS011;10583;49.084;8.646;2023-09-07T10:20:16;4.05;;;4.05;;
20844;SDS011;10583;49.084;8.646;2023-09-07T10:22:43;4.00;;;4.00;;
20844;SDS011;10583;49.084;8.646;2023-09-07T10:25:20;3.67;;;3.67;;
20844;SDS011;10583;49.084;8.646;2023-09-07T10:27:48;3.42;;;3.42;;
20844;SDS011;10583;49.084;8.646;2023-09-07T10:30:15;3.60;;;3.60;;
20844;SDS011;10583;49.084;8.646;2023-09-07T10:32:44;3.80;;;3.80;;
20844;SDS011;10583;49.084;8.646;2023-09-07T10:35:15;3.78;;;3.78;;
20844;SDS011;10583;49.084;8.646;2023-09-07T10:37:45;3.50;;;3.50;;
20844;SDS011;10583;49.084;8.646;2023-09-07T10:40:12;3.80;;;3.80;;
20844;SDS011;10583;49.084;8.646;2023-09-07T10:42:47;3.30;;;3.30;;
20844;SDS011;10583;49.084;8.646;2023-09-07T10:45:15;3.38;;;3.38;;
20844;SDS011;10583;49.084;8.646;2023-09-07T10:47:42;3.33;;;3.33;;
20844;SDS011;10583;49.084;8.646;2023-09-07T10:50:11;3.47;;;3.47;;
20844;SDS011;10583;49.084;8.646;2023-09-07T10:52:38;3.97;;;3.97;;
20844;SDS011;10583;49.084;8.646;2023-09-07T10:55:06;3.30;;;3.30;;
20844;SDS011;10583;49.084;8.646;2023-09-07T10:57:41;3.72;;;3.72;;
20844;SDS011;10583;49.084;8.646;2023-09-07T11:00:11;3.63;;;3.63;;
20844;SDS011;10583;49.084;8.646;2023-09-07T11:02:39;3.38;;;3.38;;
20844;SDS011;10583;49.084;8.646;2023-09-07T11:05:06;3.60;;;3.60;;
20844;SDS011;10583;49.084;8.646;2023-09-07T11:07:36;3.55;;;3.55;;
20844;SDS011;10583;49.084;8.646;2023-09-07T11:10:05;3.50;;;3.50;;
20844;SDS011;10583;49.084;8.646;2023-09-07T11:12:36;3.53;;;3.53;;
20844;SDS011;10583;49.084;8.646;2023-09-07T11:15:04;3.55;;;3.55;;
20844;SDS011;10583;49.084;8.646;2023-09-07T11:17:32;3.63;;;3.63;;
20844;SDS011;10583;49.084;8.646;2023-09-07T11:20:03;3.50;;;3.50;;
20844;SDS011;10583;49.084;8.646;2023-09-07T11:22:32;3.53;;;3.53;;
20844;SDS011;10583;49.084;8.646;2023-09-07T11:25:00;3.72;;;3.72;;
20844;SDS011;10583;49.084;8.646;2023-09-07T11:27:28;3.85;;;3.85;;
20844;SDS011;10583;49.084;8.646;2023-09-07T11:29:56;3.67;;;3.67;;
20844;SDS011;10583;49.084;8.646;2023-09-07T11:32:23;3.60;;;3.60;;
20844;SDS011;10583;49.084;8.646;2023-09-07T11:34:51;3.47;;;3.47;;
20844;SDS011;10583;49.084;8.646;2023-09-07T11:37:22;3.80;;;3.80;;
20844;SDS011;10583;49.084;8.646;2023-09-07T11:39:50;3.70;;;3.70;;
20844;SDS011;10583;49.084;8.646;2023-09-07T11:42:17;3.75;;;3.75;;
20844;SDS011;10583;49.084;8.646;2023-09-07T11:44:44;3.55;;;3.55;;
20844;SDS011;10583;49.084;8.646;2023-09-07T11:47:11;3.90;;;3.90;;
20844;SDS011;10583;49.084;8.646;2023-09-07T11:49:37;2.90;;;2.90;;
20844;SDS011;10583;49.084;8.646;2023-09-07T11:52:05;3.22;;;3.22;;
20844;SDS011;10583;49.084;8.646;2023-09-07T11:54:32;3.40;;;3.40;;
20844;SDS011;10583;49.084;8.646;2023-09-07T11:56:59;3.28;;;3.28;;
20844;SDS011;10583;49.084;8.646;2023-09-07T11:59:26;3.78;;;3.78;;
20844;SDS011;10583;49.084;8.646;2023-09-07T12:01:53;3.10;;;3.10;;
20844;SDS011;10583;49.084;8.646;2023-09-07T12:04:20;3.38;;;3.38;;
20844;SDS011;10583;49.084;8.646;2023-09-07T12:06:46;3.53;;;3.53;;
20844;SDS011;10583;49.084;8.646;2023-09-07T12:09:14;3.47;;;3.47;;
20844;SDS011;10583;49.084;8.646;2023-09-07T12:11:42;3.10;;;3.10;;
20844;SDS011;10583;49.084;8.646;2023-09-07T12:14:09;3.10;;;3.10;;
20844;SDS011;10583;49.084;8.646;2023-09-07T12:16:36;3.45;;;3.45;;
20844;SDS011;10583;49.084;8.646;2023-09-07T12:19:02;3.10;;;3.10;;
20844;SDS011;10583;49.084;8.646;2023-09-07T12:21:29;3.50;;;3.50;;
20844;SDS011;10583;49.084;8.646;2023-09-07T12:23:56;3.65;;;3.65;;
20844;SDS011;10583;49.084;8.646;2023-09-07T12:26:24;3.22;;;3.22;;
20844;SDS011;10583;49.084;8.646;2023-09-07T12:28:51;3.28;;;3.28;;
20844;SDS011;10583;49.084;8.646;2023-09-07T12:31:17;3.35;;;3.35;;
20844;SDS011;10583;49.084;8.646;2023-09-07T12:33:44;3.60;;;3.60;;
20844;SDS011;10583;49.084;8.646;2023-09-07T12:36:11;3.25;;;3.25;;
20844;SDS011;10583;49.084;8.646;2023-09-07T12:38:37;3.17;;;3.17;;
20844;SDS011;10583;49.084;8.646;2023-09-07T12:41:04;3.63;;;3.63;;
20844;SDS011;10583;49.084;8.646;2023-09-07T12:43:32;3.50;;;3.50;;
20844;SDS011;10583;49.084;8.646;2023-09-07T12:45:59;3.40;;;3.40;;
20844;SDS011;10583;49.084;8.646;2023-09-07T12:48:26;3.40;;;3.40;;
20844;SDS011;10583;49.084;8.646;2023-09-07T12:50:53;3.45;;;3.45;;
20844;SDS011;10583;49.084;8.646;2023-09-07T12:53:20;3.35;;;3.35;;
20844;SDS011;10583;49.084;8.646;2023-09-07T12:55:49;3.47;;;3.47;;
20844;SDS011;10583;49.084;8.646;2023-09-07T12:58:17;3.45;;;3.45;;
20844;SDS011;10583;49.084;8.646;2023-09-07T13:00:45;3.60;;;3.60;;
20844;SDS011;10583;49.084;8.646;2023-09-07T13:03:13;3.40;;;3.40;;
20844;SDS011;10583;49.084;8.646;2023-09-07T13:05:39;3.40;;;3.40;;
20844;SDS011;10583;49.084;8.646;2023-09-07T13:08:06;3.40;;;3.40;;
20844;SDS011;10583;49.084;8.646;2023-09-07T13:10:33;3.53;;;3.53;;
20844;SDS011;10583;49.084;8.646;2023-09-07T13:12:59;3.60;;;3.60;;
20844;SDS011;10583;49.084;8.646;2023-09-07T13:15:26;3.20;;;3.20;;
20844;SDS011;10583;49.084;8.646;2023-09-07T13:17:54;3.28;;;3.28;;
20844;SDS011;10583;49.084;8.646;2023-09-07T13:20:21;3.45;;;3.45;;
20844;SDS011;10583;49.084;8.646;2023-09-07T13:22:48;3.20;;;3.20;;
20844;SDS011;10583;49.084;8.646;2023-09-07T13:25:14;3.42;;;3.42;;
20844;SDS011;10583;49.084;8.646;2023-09-07T13:27:41;3.28;;;3.28;;
20844;SDS011;10583;49.084;8.646;2023-09-07T13:30:08;3.15;;;3.15;;
20844;SDS011;10583;49.084;8.646;2023-09-07T13:32:37;3.53;;;3.53;;
20844;SDS011;10583;49.084;8.646;2023-09-07T13:35:05;4.57;;;4.38;;
20844;SDS011;10583;49.084;8.646;2023-09-07T13:37:32;3.13;;;3.13;;
20844;SDS011;10583;49.084;8.646;2023-09-07T13:40:00;5.30;;;5.10;;
20844;SDS011;10583;49.084;8.646;2023-09-07T13:42:28;2.95;;;2.95;;
20844;SDS011;10583;49.084;8.646;2023-09-07T13:44:55;3.40;;;3.40;;
20844;SDS011;10583;49.084;8.646;2023-09-07T13:47:22;3.00;;;3.00;;
20844;SDS011;10583;49.084;8.646;2023-09-07T13:49:48;3.17;;;3.17;;
20844;SDS011;10583;49.084;8.646;2023-09-07T13:52:16;3.10;;;3.10;;
20844;SDS011;10583;49.084;8.646;2023-09-07T13:54:43;3.15;;;3.15;;
20844;SDS011;10583;49.084;8.646;2023-09-07T13:57:15;3.28;;;3.28;;
20844;SDS011;10583;49.084;8.646;2023-09-07T13:59:42;2.90;;;2.90;;
20844;SDS011;10583;49.084;8.646;2023-09-07T14:02:08;3.33;;;3.33;;
20844;SDS011;10583;49.084;8.646;2023-09-07T14:04:35;3.55;;;3.55;;
20844;SDS011;10583;49.084;8.646;2023-09-07T14:07:02;3.10;;;3.10;;
20844;SDS011;10583;49.084;8.646;2023-09-07T14:09:30;3.45;;;3.45;;
20844;SDS011;10583;49.084;8.646;2023-09-07T14:11:58;3.17;;;3.17;;
20844;SDS011;10583;49.084;8.646;2023-09-07T14:14:25;3.28;;;3.28;;
20844;SDS011;10583;49.084;8.646;2023-09-07T14:16:52;3.40;;;3.40;;
20844;SDS011;10583;49.084;8.646;2023-09-07T14:19:21;3.10;;;3.10;;
20844;SDS011;10583;49.084;8.646;2023-09-07T14:21:48;3.35;;;3.35;;
20844;SDS011;10583;49.084;8.646;2023-09-07T14:24:15;3.08;;;3.08;;
20844;SDS011;10583;49.084;8.646;2023-09-07T14:26:43;3.08;;;3.08;;
20844;SDS011;10583;49.084;8.646;2023-09-07T14:29:09;3.35;;;3.35;;
20844;SDS011;10583;49.084;8.646;2023-09-07T14:31:36;3.50;;;3.50;;
20844;SDS011;10583;49.084;8.646;2023-09-07T14:34:03;3.10;;;3.10;;
20844;SDS011;10583;49.084;8.646;2023-09-07T14:36:30;3.40;;;3.40;;
20844;SDS011;10583;49.084;8.646;2023-09-07T14:38:57;3.40;;;3.40;;
20844;SDS011;10583;49.084;8.646;2023-09-07T14:41:23;3.17;;;3.17;;
20844;SDS011;10583;49.084;8.646;2023-09-07T14:43:51;3.00;;;3.00;;
20844;SDS011;10583;49.084;8.646;2023-09-07T14:46:18;3.25;;;3.25;;
20844;SDS011;10583;49.084;8.646;2023-09-07T14:48:47;3.38;;;3.38;;